Time;durP1;ratioP1;P1;durP2;ratioP2;P2;SDS_P1;SDS_P2;PMS_P1;PMS_P2;Temp;Humidity;BMP_temperature;BMP_pressure;BME280_temperature;BME280_humidity;BME280_pressure;Samples;Min_cycle;Max_cycle;Signal;HPM_P1;HPM_P2
2023/04/10 00:00:18;;;;;;;11.87;7.17;;;;;;;4.47;92.95;101198.72;4999395;28;20256;-71
2023/04/10 00:02:45;;;;;;;8.93;6.33;;;;;;;4.34;94.29;101207.66;5005338;28;20281;-71
2023/04/10 00:05:11;;;;;;;11.00;7.10;;;;;;;4.35;93.57;101209.44;5004301;28;20624;-70
2023/04/10 00:07:38;;;;;;;11.47;6.63;;;;;;;4.18;93.83;101207.69;5000651;28;20198;-71
2023/04/10 00:10:04;;;;;;;9.57;6.93;;;;;;;3.97;94.88;101204.84;5004809;28;20257;-71
2023/04/10 00:12:31;;;;;;;9.33;6.67;;;;;;;3.85;95.36;101201.56;5002502;28;20205;-71
2023/04/10 00:14:58;;;;;;;9.97;6.60;;;;;;;3.64;96.36;101193.47;4998831;28;20255;-70
2023/04/10 00:17:24;;;;;;;10.17;6.77;;;;;;;3.52;97.67;101192.78;5002423;28;20210;-71
2023/04/10 00:19:50;;;;;;;11.33;6.87;;;;;;;3.50;98.68;101193.53;5003921;28;20202;-71
2023/04/10 00:22:17;;;;;;;11.13;6.83;;;;;;;3.51;98.88;101193.63;5009048;28;20242;-72
2023/04/10 00:24:43;;;;;;;10.10;6.87;;;;;;;3.54;98.59;101192.88;5002174;28;20231;-71
2023/04/10 00:27:10;;;;;;;11.10;7.20;;;;;;;3.61;98.43;101193.31;4997107;28;20201;-71
2023/04/10 00:29:36;;;;;;;12.80;7.10;;;;;;;3.51;98.25;101193.63;5004543;28;20438;-70
2023/04/10 00:32:02;;;;;;;11.70;7.10;;;;;;;3.53;97.62;101196.31;5005753;28;20238;-71
2023/04/10 00:34:29;;;;;;;12.43;7.27;;;;;;;3.51;97.82;101198.84;5007857;28;20196;-71
2023/04/10 00:36:55;;;;;;;11.93;6.90;;;;;;;3.42;98.29;101188.78;5000971;28;20209;-71
2023/04/10 00:39:22;;;;;;;11.27;7.27;;;;;;;3.36;98.76;101204.16;5005112;28;20225;-70
2023/04/10 00:41:48;;;;;;;14.10;7.20;;;;;;;3.26;99.12;101198.34;4993848;28;20323;-71
2023/04/10 00:44:15;;;;;;;11.50;7.60;;;;;;;3.18;100.00;101199.59;4994912;28;20554;-71
2023/04/10 00:46:42;;;;;;;10.43;7.17;;;;;;;3.21;100.00;101207.66;5000150;28;20739;-70
2023/04/10 00:49:08;;;;;;;11.57;7.20;;;;;;;3.34;98.97;101208.41;5009465;28;20229;-70
2023/04/10 00:51:36;;;;;;;11.67;7.63;;;;;;;3.25;99.76;101210.53;5007890;28;20233;-71
2023/04/10 00:54:03;;;;;;;15.23;7.43;;;;;;;3.29;100.00;101203.75;5003243;28;20387;-70
2023/04/10 00:56:30;;;;;;;15.03;7.83;;;;;;;3.13;100.00;101197.63;4996738;28;20207;-71
2023/04/10 00:58:57;;;;;;;10.97;6.93;;;;;;;3.06;100.00;101205.06;4999201;28;20205;-71
2023/04/10 01:01:23;;;;;;;12.70;7.40;;;;;;;3.03;100.00;101207.50;4997526;28;20217;-71
2023/04/10 01:03:51;;;;;;;10.57;7.17;;;;;;;2.97;100.00;101217.63;5007103;28;20650;-70
2023/04/10 01:06:20;;;;;;;10.07;7.23;;;;;;;2.91;100.00;101217.28;5004457;28;20205;-71
2023/04/10 01:09:08;;;;;;;11.97;7.73;;;;;;;2.94;100.00;101215.75;5003507;28;20669;-70
2023/04/10 01:11:51;;;;;;;10.97;6.73;;;;;;;2.88;100.00;101222.34;4999164;28;20234;-71
2023/04/10 01:14:43;;;;;;;13.17;7.70;;;;;;;2.76;100.00;101206.81;5001687;28;20208;-71
2023/04/10 01:17:20;;;;;;;11.97;7.40;;;;;;;2.71;100.00;101205.66;4999217;28;20199;-71
2023/04/10 01:20:01;;;;;;;12.83;8.17;;;;;;;2.75;100.00;101207.63;4999788;28;20203;-70
2023/04/10 01:22:48;;;;;;;12.03;7.83;;;;;;;2.72;100.00;101199.63;5006313;28;20201;-72
2023/04/10 01:25:30;;;;;;;13.00;7.50;;;;;;;2.81;100.00;101197.56;5001006;28;20219;-70
2023/04/10 01:28:15;;;;;;;11.33;7.03;;;;;;;2.77;100.00;101188.59;5004607;28;20648;-72
2023/04/10 01:30:43;;;;;;;11.87;7.67;;;;;;;2.77;100.00;101185.09;5008153;28;20366;-71
2023/04/10 01:33:14;;;;;;;13.17;7.43;;;;;;;2.76;100.00;101185.91;5001119;28;20292;-71
2023/04/10 01:35:46;;;;;;;12.53;7.53;;;;;;;2.77;100.00;101187.69;5004359;28;20199;-70
2023/04/10 01:38:16;;;;;;;12.83;7.47;;;;;;;2.78;100.00;101187.78;5002583;28;20681;-71
2023/04/10 01:40:48;;;;;;;12.73;8.00;;;;;;;2.77;100.00;101179.84;5003370;28;20272;-71
2023/04/10 01:43:17;;;;;;;11.17;7.13;;;;;;;2.83;100.00;101169.78;5008373;28;20254;-71
2023/04/10 01:45:46;;;;;;;10.67;7.03;;;;;;;2.82;100.00;101175.81;4998673;28;20572;-71
2023/04/10 01:48:15;;;;;;;11.40;7.33;;;;;;;2.77;100.00;101165.06;5002028;28;20238;-70
2023/04/10 01:50:42;;;;;;;10.10;7.30;;;;;;;2.74;100.00;101167.50;4997244;28;20218;-70
2023/04/10 01:53:09;;;;;;;13.37;7.40;;;;;;;2.66;100.00;101160.94;4999857;28;20294;-71
2023/04/10 01:55:37;;;;;;;10.43;6.87;;;;;;;2.63;100.00;101165.09;5008398;28;20237;-71
2023/04/10 01:58:06;;;;;;;12.03;7.03;;;;;;;2.60;100.00;101167.53;5002032;28;20201;-71
2023/04/10 02:00:40;;;;;;;12.13;7.47;;;;;;;2.61;100.00;101166.72;5002675;28;20220;-71
2023/04/10 02:03:08;;;;;;;10.20;7.20;;;;;;;2.58;100.00;101158.72;5011244;28;20200;-71
2023/04/10 02:06:03;;;;;;;13.23;7.57;;;;;;;2.55;100.00;101167.28;4992453;28;20197;-71
2023/04/10 02:08:38;;;;;;;13.37;7.13;;;;;;;2.66;100.00;101153.09;4991265;28;20219;-71
2023/04/10 02:11:24;;;;;;;10.20;6.43;;;;;;;2.68;100.00;101155.81;5003336;28;20236;-71
2023/04/10 02:13:52;;;;;;;12.30;7.00;;;;;;;2.64;100.00;101151.22;4995545;28;20708;-71
2023/04/10 02:16:21;;;;;;;11.10;7.07;;;;;;;2.57;100.00;101147.34;5006423;28;20197;-71
2023/04/10 02:18:50;;;;;;;11.13;7.20;;;;;;;2.55;100.00;101146.38;5001905;28;20207;-71
2023/04/10 02:21:17;;;;;;;11.50;7.57;;;;;;;2.69;100.00;101155.88;5007337;28;20214;-71
2023/04/10 02:23:44;;;;;;;13.97;8.10;;;;;;;2.79;100.00;101142.50;5006020;28;20267;-70
2023/04/10 02:26:10;;;;;;;12.13;7.03;;;;;;;2.88;100.00;101144.78;5002276;28;20206;-70
2023/04/10 02:28:38;;;;;;;11.77;7.10;;;;;;;2.91;100.00;101150.16;5003850;28;20695;-71
2023/04/10 02:31:05;;;;;;;11.87;7.20;;;;;;;3.00;100.00;101152.41;5000065;28;20726;-71
2023/04/10 02:33:32;;;;;;;13.20;8.27;;;;;;;2.93;100.00;101155.50;5003555;28;20271;-71
2023/04/10 02:36:00;;;;;;;13.97;7.40;;;;;;;2.89;100.00;101150.91;5003512;28;20207;-71
2023/04/10 02:38:26;;;;;;;11.03;7.43;;;;;;;2.78;100.00;101150.28;5005819;28;20294;-70
2023/04/10 02:40:53;;;;;;;11.17;7.43;;;;;;;2.84;100.00;101150.66;4995834;28;20268;-71
2023/04/10 02:43:19;;;;;;;10.50;7.03;;;;;;;2.95;100.00;101146.91;5001677;28;20206;-71
2023/04/10 02:45:46;;;;;;;13.57;8.07;;;;;;;2.98;100.00;101146.19;5010291;28;20621;-71
2023/04/10 02:48:12;;;;;;;11.10;7.40;;;;;;;2.94;100.00;101147.72;5002965;28;20687;-71
2023/04/10 02:50:39;;;;;;;12.40;7.50;;;;;;;2.93;100.00;101147.63;4988582;28;20522;-71
2023/04/10 02:53:06;;;;;;;11.17;7.50;;;;;;;2.92;100.00;101148.44;5001312;28;20205;-71
2023/04/10 02:55:32;;;;;;;11.40;7.30;;;;;;;2.88;100.00;101142.16;5005886;28;20258;-70
2023/04/10 02:57:58;;;;;;;10.80;7.30;;;;;;;2.88;100.00;101141.25;5002354;28;20661;-70
2023/04/10 03:00:26;;;;;;;10.30;7.53;;;;;;;2.88;100.00;101129.06;5010220;28;20224;-71
2023/04/10 03:02:52;;;;;;;12.33;7.33;;;;;;;2.85;100.00;101138.47;5006018;28;20231;-71
2023/04/10 03:05:19;;;;;;;10.27;7.10;;;;;;;2.81;100.00;101129.56;5003457;28;20654;-71
2023/04/10 03:07:45;;;;;;;12.27;7.30;;;;;;;2.75;100.00;101129.19;5000197;28;20670;-72
2023/04/10 03:10:11;;;;;;;12.13;7.33;;;;;;;2.73;100.00;101128.19;4998860;28;20226;-71
2023/04/10 03:12:38;;;;;;;12.10;6.67;;;;;;;2.78;100.00;101119.78;4997248;28;20244;-71
2023/04/10 03:15:05;;;;;;;11.20;7.60;;;;;;;2.68;100.00;101121.81;5008661;28;20620;-71
2023/04/10 03:17:31;;;;;;;11.40;7.20;;;;;;;2.62;100.00;101121.47;4998272;28;20685;-70
2023/04/10 03:19:57;;;;;;;11.23;7.50;;;;;;;2.56;100.00;101116.78;5007957;28;20264;-72
2023/04/10 03:22:24;;;;;;;11.07;7.10;;;;;;;2.54;100.00;101107.97;4997954;28;20248;-70
2023/04/10 03:24:51;;;;;;;12.23;8.13;;;;;;;2.64;100.00;101107.66;5009295;28;20628;-71
2023/04/10 03:27:17;;;;;;;14.67;8.13;;;;;;;2.63;100.00;101102.34;5004428;28;20492;-70
2023/04/10 03:29:44;;;;;;;12.60;7.77;;;;;;;2.54;100.00;101099.22;5006905;28;20693;-72
2023/04/10 03:32:10;;;;;;;11.60;7.43;;;;;;;2.54;100.00;101099.22;5000205;28;20222;-71
2023/04/10 03:34:37;;;;;;;12.07;7.03;;;;;;;2.53;100.00;101092.19;5001879;28;20203;-70
2023/04/10 03:37:03;;;;;;;11.43;7.70;;;;;;;2.47;100.00;101093.66;5002529;28;20204;-70
2023/04/10 03:39:30;;;;;;;10.13;6.97;;;;;;;2.46;100.00;101091.84;5006754;28;20277;-70
2023/04/10 03:41:56;;;;;;;12.23;7.60;;;;;;;2.44;100.00;101088.25;4991284;28;20212;-72
2023/04/10 03:44:22;;;;;;;11.30;7.43;;;;;;;2.42;100.00;101092.50;5005787;28;20194;-71
2023/04/10 03:46:49;;;;;;;12.70;7.73;;;;;;;2.37;100.00;101090.41;5001682;28;20310;-71
2023/04/10 03:49:15;;;;;;;11.23;7.40;;;;;;;2.31;100.00;101093.56;4995871;28;20671;-71
2023/04/10 03:51:42;;;;;;;11.07;6.87;;;;;;;2.27;100.00;101094.22;5000509;28;20225;-70
2023/04/10 03:54:08;;;;;;;12.10;7.57;;;;;;;2.25;100.00;101100.16;5006675;28;21242;-70
2023/04/10 03:56:34;;;;;;;13.23;7.80;;;;;;;2.22;100.00;101095.66;5006374;28;20235;-71
2023/04/10 03:59:01;;;;;;;11.50;7.57;;;;;;;2.36;100.00;101089.50;5002885;28;20236;-70
2023/04/10 04:01:27;;;;;;;11.87;7.27;;;;;;;2.43;100.00;101098.63;5002492;28;20729;-70
2023/04/10 04:03:54;;;;;;;13.30;7.63;;;;;;;2.37;100.00;101106.97;5001237;28;20586;-70
2023/04/10 04:06:21;;;;;;;12.50;7.67;;;;;;;2.28;100.00;101109.06;4999427;28;20207;-70
2023/04/10 04:08:47;;;;;;;11.93;7.50;;;;;;;2.19;100.00;101114.69;5003960;28;20259;-70
2023/04/10 04:11:13;;;;;;;12.97;7.93;;;;;;;2.10;100.00;101108.03;4996561;28;20315;-71
2023/04/10 04:13:39;;;;;;;11.97;6.87;;;;;;;2.01;100.00;101116.22;5001350;28;20200;-71
2023/04/10 04:16:07;;;;;;;11.87;7.40;;;;;;;1.95;100.00;101117.53;5003748;28;20262;-71
2023/04/10 04:18:33;;;;;;;13.00;7.77;;;;;;;1.89;100.00;101116.38;5004861;28;20197;-71
2023/04/10 04:21:00;;;;;;;12.57;7.20;;;;;;;2.03;100.00;101119.81;5009368;28;20278;-71
2023/04/10 04:23:26;;;;;;;13.77;7.77;;;;;;;2.24;100.00;101125.38;4997230;28;20671;-70
2023/04/10 04:25:55;;;;;;;12.73;7.53;;;;;;;2.25;100.00;101124.56;4996622;28;20208;-69
2023/04/10 04:28:21;;;;;;;12.47;7.70;;;;;;;2.14;100.00;101136.13;4995179;28;20699;-69
2023/04/10 04:30:49;;;;;;;14.07;7.37;;;;;;;2.06;100.00;101126.94;4999250;28;20223;-69
2023/04/10 04:33:15;;;;;;;13.23;7.77;;;;;;;2.05;100.00;101125.13;5004976;28;20247;-69
2023/04/10 04:35:41;;;;;;;11.70;7.57;;;;;;;2.15;100.00;101117.94;5004111;28;20192;-69
2023/04/10 04:38:08;;;;;;;11.97;7.77;;;;;;;2.17;100.00;101126.75;4999935;28;20224;-69
2023/04/10 04:40:34;;;;;;;12.07;7.50;;;;;;;2.28;100.00;101119.53;5006762;28;20734;-69
2023/04/10 04:43:00;;;;;;;13.07;7.90;;;;;;;2.29;100.00;101123.03;5003198;28;20616;-69
2023/04/10 04:45:28;;;;;;;11.90;7.47;;;;;;;2.34;100.00;101108.53;5003074;28;20196;-69
2023/04/10 04:47:54;;;;;;;12.33;8.03;;;;;;;2.26;100.00;101115.94;5003383;28;20241;-69
2023/04/10 04:50:21;;;;;;;14.07;7.97;;;;;;;2.22;100.00;101113.94;5003216;28;20247;-69
2023/04/10 04:52:48;;;;;;;13.47;7.90;;;;;;;2.24;100.00;101114.94;5005051;28;20266;-69
2023/04/10 04:55:14;;;;;;;14.03;7.67;;;;;;;2.23;100.00;101120.97;5007135;28;20281;-69
2023/04/10 04:57:40;;;;;;;13.70;8.30;;;;;;;2.25;100.00;101115.84;4998979;28;20196;-69
2023/04/10 05:00:07;;;;;;;11.70;7.93;;;;;;;2.28;100.00;101111.69;5000387;28;20228;-69
2023/04/10 05:02:34;;;;;;;12.07;8.03;;;;;;;2.29;100.00;101120.44;4999706;28;20552;-69
2023/04/10 05:05:00;;;;;;;15.50;8.97;;;;;;;2.34;100.00;101117.25;5005654;28;20290;-69
2023/04/10 05:07:27;;;;;;;11.67;7.87;;;;;;;2.38;100.00;101105.28;5002068;28;20291;-69
2023/04/10 05:09:54;;;;;;;17.60;8.53;;;;;;;2.50;100.00;101108.59;4997343;28;20196;-69
2023/04/10 05:12:20;;;;;;;13.70;8.43;;;;;;;2.59;100.00;101108.22;4987876;28;20229;-69
2023/04/10 05:14:47;;;;;;;14.07;8.17;;;;;;;2.67;100.00;101109.56;5004248;28;20224;-69
2023/04/10 05:17:14;;;;;;;13.83;8.93;;;;;;;2.76;100.00;101104.81;4998577;28;20551;-69
2023/04/10 05:19:40;;;;;;;14.70;8.90;;;;;;;2.88;100.00;101104.63;5002008;28;20201;-69
2023/04/10 05:22:06;;;;;;;13.20;9.10;;;;;;;3.02;100.00;101106.28;5001985;28;20556;-69
2023/04/10 05:24:33;;;;;;;12.57;8.07;;;;;;;3.25;100.00;101110.16;4997813;28;20312;-69
2023/04/10 05:26:59;;;;;;;15.13;8.97;;;;;;;3.40;100.00;101111.88;5005713;28;20357;-69
2023/04/10 05:29:26;;;;;;;16.03;8.10;;;;;;;3.50;100.00;101108.03;5001225;28;20676;-69
2023/04/10 05:31:52;;;;;;;13.70;8.13;;;;;;;3.67;100.00;101103.69;4999898;28;20224;-69
2023/04/10 05:34:19;;;;;;;11.57;8.03;;;;;;;3.77;100.00;101113.81;5006389;28;20575;-69
2023/04/10 05:36:45;;;;;;;12.43;7.97;;;;;;;3.95;100.00;101112.13;4999773;28;20209;-69
2023/04/10 05:39:12;;;;;;;12.23;8.13;;;;;;;4.15;100.00;101113.16;4993714;28;20573;-69
2023/04/10 05:41:38;;;;;;;14.57;8.47;;;;;;;4.35;97.89;101103.66;5003394;28;20216;-69
2023/04/10 05:44:05;;;;;;;11.10;7.33;;;;;;;4.51;97.56;101105.34;5006935;28;20235;-69
2023/04/10 05:46:31;;;;;;;14.27;7.90;;;;;;;4.71;96.27;101108.09;5005659;28;20201;-69
2023/04/10 05:48:57;;;;;;;13.00;7.93;;;;;;;4.90;95.09;101103.75;5008421;28;20665;-69
2023/04/10 05:51:25;;;;;;;13.47;7.83;;;;;;;5.10;95.07;101104.66;5004001;28;20667;-69
2023/04/10 05:53:51;;;;;;;13.50;8.20;;;;;;;5.25;94.49;101103.66;4992149;28;20193;-69
2023/04/10 05:56:17;;;;;;;14.63;8.83;;;;;;;5.46;93.43;101101.09;5005681;28;20580;-69
2023/04/10 05:58:44;;;;;;;12.67;8.30;;;;;;;5.72;92.15;101104.91;4999111;28;20264;-69
2023/04/10 06:01:12;;;;;;;13.30;8.80;;;;;;;5.97;90.54;101104.25;5002127;28;20236;-69
2023/04/10 06:03:38;;;;;;;13.27;8.63;;;;;;;6.22;89.93;101107.13;5008943;28;20219;-69
2023/04/10 06:06:06;;;;;;;12.77;8.50;;;;;;;6.48;88.31;101107.31;5006605;28;20664;-69
2023/04/10 06:08:33;;;;;;;15.10;9.03;;;;;;;6.54;87.86;101102.31;5007917;28;20204;-69
2023/04/10 06:10:59;;;;;;;15.60;8.80;;;;;;;6.64;87.06;101099.19;5004277;28;20220;-69
2023/04/10 06:13:26;;;;;;;13.07;8.77;;;;;;;6.77;86.91;101092.69;5009405;28;20320;-69
2023/04/10 06:15:52;;;;;;;14.50;9.53;;;;;;;6.89;85.59;101090.56;5011300;28;20287;-69
2023/04/10 06:18:19;;;;;;;17.83;10.10;;;;;;;6.99;84.64;101097.97;5009439;28;20212;-69
2023/04/10 06:20:45;;;;;;;15.40;9.40;;;;;;;7.05;84.17;101098.22;5008070;28;20213;-70
2023/04/10 06:23:12;;;;;;;14.70;9.33;;;;;;;6.99;84.96;101094.44;5006869;28;20687;-69
2023/04/10 06:25:39;;;;;;;14.40;9.20;;;;;;;7.01;85.50;101098.03;5007491;28;20218;-69
2023/04/10 06:28:05;;;;;;;13.03;9.00;;;;;;;7.28;84.61;101101.72;5008778;28;20199;-69
2023/04/10 06:30:33;;;;;;;19.67;9.57;;;;;;;7.59;82.59;101102.84;5010630;28;20310;-69
2023/04/10 06:33:00;;;;;;;18.00;11.50;;;;;;;7.70;81.49;101098.91;5012484;28;20224;-69
2023/04/10 06:35:26;;;;;;;17.87;10.57;;;;;;;7.87;81.32;101103.03;5007762;28;20287;-69
2023/04/10 06:37:53;;;;;;;19.27;10.33;;;;;;;8.13;80.74;101096.94;4986121;28;20198;-69
2023/04/10 06:40:19;;;;;;;18.60;10.50;;;;;;;8.31;79.54;101095.75;5009294;28;20224;-70
2023/04/10 06:42:46;;;;;;;20.80;11.30;;;;;;;8.51;78.08;101097.34;5010328;28;20234;-69
2023/04/10 06:45:12;;;;;;;19.63;11.30;;;;;;;8.71;76.92;101098.88;5011008;28;20549;-70
2023/04/10 06:47:39;;;;;;;21.87;12.20;;;;;;;8.94;75.10;101106.66;5009192;28;20229;-70
2023/04/10 06:50:05;;;;;;;24.57;13.43;;;;;;;8.99;75.26;101102.41;5011064;28;20314;-69
2023/04/10 06:52:32;;;;;;;20.00;11.67;;;;;;;9.09;74.47;101092.16;5011402;28;20235;-69
2023/04/10 06:54:58;;;;;;;16.80;10.83;;;;;;;9.13;73.34;101089.63;5013983;28;20203;-70
2023/04/10 06:57:25;;;;;;;17.03;10.70;;;;;;;9.31;73.34;101099.00;5005283;28;20617;-70
2023/04/10 06:59:51;;;;;;;15.97;9.90;;;;;;;9.50;72.05;101086.31;5009908;28;20667;-69
2023/04/10 07:02:17;;;;;;;16.07;9.70;;;;;;;9.88;71.11;101085.66;5010146;28;20207;-70
2023/04/10 07:04:44;;;;;;;15.17;9.40;;;;;;;10.78;67.63;101087.06;5006931;28;20199;-70
2023/04/10 07:07:12;;;;;;;13.17;9.17;;;;;;;11.84;63.40;101081.47;5000629;28;20279;-70
2023/04/10 07:09:38;;;;;;;14.03;9.13;;;;;;;12.93;58.50;101076.25;5007856;28;20205;-70
2023/04/10 07:12:05;;;;;;;12.97;9.00;;;;;;;13.99;55.31;101073.19;5011189;28;20219;-70
2023/04/10 07:14:35;;;;;;;14.43;9.17;;;;;;;14.80;51.78;101065.94;5007371;28;20210;-70
2023/04/10 07:17:02;;;;;;;15.77;9.73;;;;;;;15.46;48.34;101080.56;5007769;28;20196;-70
2023/04/10 07:19:28;;;;;;;13.40;8.70;;;;;;;14.98;49.28;101074.06;5011997;28;20223;-70
2023/04/10 07:21:55;;;;;;;11.87;7.87;;;;;;;14.68;49.14;101078.31;5016168;28;20267;-70
2023/04/10 07:24:21;;;;;;;12.23;8.17;;;;;;;15.03;47.99;101083.88;5011465;28;20208;-69
2023/04/10 07:26:47;;;;;;;12.23;7.93;;;;;;;15.22;46.94;101079.56;5005490;28;20239;-69
2023/04/10 07:29:14;;;;;;;10.67;7.33;;;;;;;15.61;45.90;101073.56;5004778;28;20237;-69
2023/04/10 07:31:41;;;;;;;11.63;7.83;;;;;;;15.10;47.19;101076.81;4999597;28;20225;-70
2023/04/10 07:34:08;;;;;;;13.10;8.00;;;;;;;14.92;47.58;101082.03;5011270;28;20223;-70
2023/04/10 07:36:35;;;;;;;13.73;8.80;;;;;;;15.12;46.11;101083.03;5006798;28;20666;-70
2023/04/10 07:39:01;;;;;;;13.17;8.50;;;;;;;15.14;45.77;101088.38;5011234;28;20277;-70
2023/04/10 07:41:28;;;;;;;15.97;10.13;;;;;;;14.94;45.84;101083.84;5002655;28;20231;-70
2023/04/10 07:43:54;;;;;;;14.13;8.30;;;;;;;14.52;46.91;101071.06;5007390;28;20732;-70
2023/04/10 07:46:20;;;;;;;11.40;8.00;;;;;;;13.75;48.30;101079.16;5000703;28;20206;-70
2023/04/10 07:48:48;;;;;;;11.87;7.40;;;;;;;13.45;50.13;101080.56;5000228;28;20217;-70
2023/04/10 07:51:14;;;;;;;11.10;7.87;;;;;;;13.01;51.14;101077.25;4996649;28;20224;-70
2023/04/10 07:53:41;;;;;;;14.67;7.90;;;;;;;12.88;51.85;101082.38;5000744;28;20226;-70
2023/04/10 07:56:13;;;;;;;11.57;7.77;;;;;;;12.79;52.14;101078.69;4999079;28;20199;-68
2023/04/10 07:58:40;;;;;;;10.73;7.47;;;;;;;12.64;52.92;101072.25;5002852;28;20200;-69
2023/04/10 08:01:06;;;;;;;11.53;7.83;;;;;;;12.52;52.93;101073.84;5007671;28;20651;-70
2023/04/10 08:03:43;;;;;;;12.20;7.70;;;;;;;12.43;53.00;101076.38;5014026;28;20200;-71
2023/04/10 08:06:10;;;;;;;10.43;7.03;;;;;;;12.40;54.60;101067.41;5005139;28;20229;-71
2023/04/10 08:08:38;;;;;;;15.07;8.90;;;;;;;12.47;53.49;101064.03;5008563;28;20209;-71
2023/04/10 08:11:26;;;;;;;23.20;12.37;;;;;;;12.52;53.68;101071.19;5008291;28;20227;-69
2023/04/10 08:13:54;;;;;;;14.13;8.87;;;;;;;12.59;53.89;101063.31;5013368;28;20248;-69
2023/04/10 08:16:25;;;;;;;16.30;8.57;;;;;;;12.69;54.30;101060.81;5010103;28;20210;-69
2023/04/10 08:18:53;;;;;;;11.40;7.43;;;;;;;12.80;54.46;101064.53;5004345;28;20293;-69
2023/04/10 08:21:21;;;;;;;11.13;7.70;;;;;;;12.94;53.53;101062.09;5002476;28;20251;-70
2023/04/10 08:23:52;;;;;;;9.53;6.83;;;;;;;13.07;53.25;101058.72;5007055;28;20283;-70
2023/04/10 08:26:20;;;;;;;11.37;7.33;;;;;;;13.20;53.27;101072.22;5002470;28;20262;-70
2023/04/10 08:28:49;;;;;;;10.53;7.40;;;;;;;13.35;52.29;101053.81;5010482;28;20254;-70
2023/04/10 08:31:20;;;;;;;11.60;7.53;;;;;;;13.54;50.38;101057.59;5004556;28;20218;-69
2023/04/10 08:33:47;;;;;;;10.43;7.50;;;;;;;13.62;50.72;101061.25;5006262;28;20938;-70
2023/04/10 08:36:16;;;;;;;10.63;7.10;;;;;;;13.73;50.54;101047.19;5006758;28;20286;-71
2023/04/10 08:38:46;;;;;;;11.87;8.27;;;;;;;13.91;51.67;101051.81;4999225;28;20334;-75
2023/04/10 08:41:17;;;;;;;12.33;8.20;;;;;;;14.06;49.67;101049.31;5005023;28;20310;-78
2023/04/10 08:43:45;;;;;;;10.20;7.47;;;;;;;14.28;49.57;101045.06;5008267;28;20211;-77
2023/04/10 08:46:13;;;;;;;10.73;7.93;;;;;;;14.34;48.20;101030.91;4987109;28;20199;-79
2023/04/10 08:48:58;;;;;;;10.87;7.33;;;;;;;14.45;47.63;101025.72;5008088;28;20203;-76
2023/04/10 08:51:31;;;;;;;10.77;7.23;;;;;;;14.66;47.85;101024.06;5004981;28;20215;-78
2023/04/10 08:54:05;;;;;;;9.63;7.07;;;;;;;14.78;47.51;101011.69;5006709;28;20225;-77
2023/04/10 08:56:33;;;;;;;10.23;7.33;;;;;;;14.87;47.27;101017.13;5006082;28;20227;-74
2023/04/10 08:59:03;;;;;;;10.83;7.60;;;;;;;15.04;47.15;101010.09;5002935;28;20208;-73
2023/04/10 09:01:30;;;;;;;9.73;7.10;;;;;;;14.94;47.01;101006.50;5002633;28;20274;-72
2023/04/10 09:03:57;;;;;;;11.33;8.03;;;;;;;14.96;47.20;101002.06;5006879;28;20577;-71
2023/04/10 09:06:24;;;;;;;10.50;7.30;;;;;;;15.32;47.07;100993.31;4998279;28;20193;-71
2023/04/10 09:08:51;;;;;;;9.20;6.83;;;;;;;15.60;46.32;100983.63;5004985;28;20199;-71
2023/04/10 09:11:17;;;;;;;10.67;7.50;;;;;;;15.86;44.37;100993.50;5000072;28;20216;-71
2023/04/10 09:13:43;;;;;;;10.97;7.13;;;;;;;16.19;42.20;100984.63;4998325;28;20256;-72
2023/04/10 09:16:10;;;;;;;8.57;6.37;;;;;;;16.54;42.41;100992.63;5000137;28;20283;-71
2023/04/10 09:18:48;;;;;;;8.87;6.37;;;;;;;16.79;40.04;100989.00;5008308;28;20654;-71
2023/04/10 09:21:19;;;;;;;7.57;5.87;;;;;;;16.94;39.52;100990.78;5001335;28;20665;-71
2023/04/10 09:23:47;;;;;;;7.63;5.47;;;;;;;16.98;39.32;100980.97;5007126;28;20628;-70
2023/04/10 09:26:24;;;;;;;9.27;5.90;;;;;;;17.04;39.69;100981.81;4998569;28;20231;-70
2023/04/10 09:29:05;;;;;;;8.10;5.93;;;;;;;17.22;39.20;100967.50;4999643;28;20850;-71
2023/04/10 09:31:35;;;;;;;8.27;5.53;;;;;;;17.22;38.37;100964.81;5003442;28;20308;-72
2023/04/10 09:34:16;;;;;;;8.30;5.90;;;;;;;17.53;38.05;100966.41;5006095;28;20703;-70
2023/04/10 09:36:56;;;;;;;8.77;5.97;;;;;;;17.79;37.80;100962.72;5000967;28;20228;-70
2023/04/10 09:39:39;;;;;;;7.03;5.47;;;;;;;17.71;37.91;100960.09;5000001;28;20201;-70
2023/04/10 09:42:06;;;;;;;7.30;5.30;;;;;;;17.59;37.07;100948.53;5002309;28;20483;-70
2023/04/10 09:44:37;;;;;;;7.57;5.43;;;;;;;17.45;38.48;100953.97;5001215;28;20212;-70
2023/04/10 09:47:24;;;;;;;7.27;5.57;;;;;;;17.54;38.00;100943.19;4999423;28;20204;-70
2023/04/10 09:50:01;;;;;;;7.30;5.43;;;;;;;17.60;37.88;100936.91;5005906;28;20578;-70
2023/04/10 09:52:33;;;;;;;6.77;5.33;;;;;;;17.54;36.98;100937.84;5006896;28;20695;-70
2023/04/10 09:55:04;;;;;;;7.50;5.57;;;;;;;17.70;37.43;100936.00;5006787;28;20613;-69
2023/04/10 09:57:33;;;;;;;7.70;5.70;;;;;;;17.74;37.52;100933.28;5007520;28;20203;-69
2023/04/10 10:00:03;;;;;;;7.43;5.50;;;;;;;17.67;37.92;100926.19;5005745;28;20708;-70
2023/04/10 10:02:33;;;;;;;7.00;5.17;;;;;;;17.77;38.46;100932.38;5013769;28;20196;-70
2023/04/10 10:05:03;;;;;;;9.00;5.53;;;;;;;17.72;38.13;100928.84;5011413;28;20196;-70
2023/04/10 10:07:30;;;;;;;8.40;5.70;;;;;;;17.51;38.31;100919.13;5009178;28;20223;-70
2023/04/10 10:09:57;;;;;;;9.30;5.30;;;;;;;17.55;38.40;100916.41;5011097;28;20216;-70
2023/04/10 10:12:43;;;;;;;6.97;5.20;;;;;;;17.59;38.42;100911.03;5005933;28;20192;-70
2023/04/10 10:15:13;;;;;;;7.87;5.37;;;;;;;17.66;38.86;100902.97;5010024;28;20201;-70
2023/04/10 10:18:00;;;;;;;7.20;5.03;;;;;;;17.72;37.90;100899.38;5005642;28;20657;-70
2023/04/10 10:20:31;;;;;;;6.47;5.00;;;;;;;17.76;38.28;100893.97;5006406;28;20216;-70
2023/04/10 10:23:01;;;;;;;6.67;5.00;;;;;;;17.80;37.57;100894.84;5011191;28;20207;-70
2023/04/10 10:41:22;;;;;;;4.90;4.03;;;;;;;18.16;34.73;100856.09;5027689;22;20768;-70
2023/04/10 10:44:07;;;;;;;6.80;3.93;;;;;;;18.39;34.53;100856.72;5026307;28;20742;-69
2023/04/10 10:46:42;;;;;;;4.83;4.00;;;;;;;18.64;33.47;100853.81;5029775;28;20234;-70
2023/04/10 10:49:08;;;;;;;5.27;4.13;;;;;;;18.79;34.54;100850.91;5026633;28;20361;-69
2023/04/10 10:51:43;;;;;;;6.20;4.40;;;;;;;18.83;33.64;100846.44;5030254;28;20195;-70
2023/04/10 10:54:35;;;;;;;6.60;4.53;;;;;;;19.09;32.90;100836.19;5029048;28;20393;-70
2023/04/10 10:57:47;;;;;;;7.50;5.47;;;;;;;19.21;33.60;100825.31;5027495;28;20691;-69
2023/04/10 11:00:15;;;;;;;5.73;4.30;;;;;;;19.15;33.16;100827.16;5030129;28;20198;-69
2023/04/10 11:02:41;;;;;;;6.97;4.87;;;;;;;19.24;33.33;100819.88;5028814;28;20200;-69
2023/04/10 11:05:08;;;;;;;5.70;4.40;;;;;;;19.38;33.48;100816.97;5029234;28;20242;-69
2023/04/10 11:08:00;;;;;;;8.23;4.30;;;;;;;19.61;32.40;100809.47;5011969;28;20199;-70
2023/04/10 11:10:58;;;;;;;5.27;4.17;;;;;;;19.73;31.54;100789.56;5021730;28;20365;-69
2023/04/10 11:13:24;;;;;;;4.93;4.00;;;;;;;20.04;31.60;100792.59;5017465;28;20195;-72
2023/04/10 11:15:51;;;;;;;5.22;3.88;;;;;;;20.32;30.18;100792.91;5016999;28;20307;-70
2023/04/10 11:18:19;;;;;;;4.93;4.10;;;;;;;20.39;30.42;100786.47;5018828;28;20199;-71
2023/04/10 11:21:09;;;;;;;8.45;4.30;;;;;;;20.38;28.75;100775.75;5013170;28;20671;-70
2023/04/10 11:23:37;;;;;;;5.18;3.83;;;;;;;20.41;28.98;100776.59;5019531;28;20224;-68
2023/04/10 11:26:05;;;;;;;4.95;3.88;;;;;;;20.42;29.37;100790.97;5020422;28;20219;-68
2023/04/10 11:28:31;;;;;;;5.20;4.00;;;;;;;20.32;30.11;100788.41;5018721;28;20201;-69
2023/04/10 11:31:21;;;;;;;5.68;4.32;;;;;;;20.68;30.48;100790.41;5014295;28;20676;-69
2023/04/10 11:33:59;;;;;;;4.25;3.53;;;;;;;20.91;30.18;100785.41;5017035;28;20196;-69
2023/04/10 11:36:26;;;;;;;4.90;3.60;;;;;;;21.09;28.71;100784.09;5014899;28;20219;-68
2023/04/10 11:38:59;;;;;;;5.13;3.83;;;;;;;21.36;26.73;100766.41;5000943;28;20231;-69
2023/04/10 11:41:30;;;;;;;5.80;4.10;;;;;;;21.18;26.74;100763.19;5019320;28;20243;-69
2023/04/10 11:43:58;;;;;;;5.28;3.70;;;;;;;21.08;27.85;100764.34;5002973;28;20243;-68